AZU9400 SBBV-KFLL
Flight info
| Callsign | AZU9400 |
|---|---|
| Flight time | N/A |
| Altitude | 34000 |
| Route | DIVRA DCT KAMOX UM423 GNA UW27 SOM UW20 CBC UL304 OLAXA/N0461F360 UL304 BODLO Y298 KNSLY A315 ZBV BR57V WIERS DCT OLAHS OLAHS3 |
| Aircraft | E190/M-SDE3GILORVW/S |
Departure
| Time | 2026-04-22 17:45 |
|---|---|
| Airport | Atlas Brasil Cantanhede International Airport (SBBV) |
Arrival
| Time | N/A |
|---|---|
| Airport | Fort Lauderdale Hollywood International Airport (KFLL) |
| Time | Latitude | Longitude | Altitude | Speed | Heading |
|---|---|---|---|---|---|
| 2026-04-22 17:14 | 2.84142 | -60.69379 | 278 ft | 0 kts | 153° |
| 2026-04-22 17:38 | 2.84142 | -60.69373 | 280 ft | 1 kts | 104° |
| 2026-04-22 17:38 | 2.84154 | -60.69367 | 281 ft | 4 kts | 20° |
| 2026-04-22 17:39 | 2.84204 | -60.69357 | 278 ft | 11 kts | 11° |
| 2026-04-22 17:39 | 2.84257 | -60.69291 | 278 ft | 16 kts | 59° |
| 2026-04-22 17:39 | 2.84433 | -60.69074 | 278 ft | 27 kts | 62° |
| 2026-04-22 17:40 | 2.84528 | -60.68888 | 279 ft | 33 kts | 63° |
| 2026-04-22 17:40 | 2.84626 | -60.68690 | 279 ft | 22 kts | 63° |
| 2026-04-22 17:40 | 2.84707 | -60.68533 | 279 ft | 29 kts | 62° |
| 2026-04-22 17:40 | 2.84813 | -60.68340 | 281 ft | 29 kts | 62° |
| 2026-04-22 17:41 | 2.84931 | -60.68201 | 278 ft | 6 kts | 33° |
| 2026-04-22 17:41 | 2.84932 | -60.68200 | 278 ft | 0 kts | 33° |
| 2026-04-22 17:43 | 2.84956 | -60.68184 | 278 ft | 8 kts | 33° |
| 2026-04-22 17:43 | 2.85026 | -60.68138 | 279 ft | 16 kts | 33° |
| 2026-04-22 17:43 | 2.85067 | -60.68155 | 279 ft | 8 kts | 252° |
| 2026-04-22 17:44 | 2.84989 | -60.68309 | 278 ft | 54 kts | 244° |
| 2026-04-22 17:44 | 2.84709 | -60.68846 | 280 ft | 121 kts | 243° |
| 2026-04-22 17:44 | 2.84234 | -60.69773 | 368 ft | 180 kts | 243° |
| 2026-04-22 17:44 | 2.83597 | -60.71103 | 697 ft | 222 kts | 249° |
| 2026-04-22 17:45 | 2.83073 | -60.72456 | 1869 ft | 199 kts | 246° |
| 2026-04-22 17:45 | 2.82429 | -60.73560 | 3019 ft | 167 kts | 245° |
| 2026-04-22 17:45 | 2.82391 | -60.74666 | 3784 ft | 167 kts | 297° |
| 2026-04-22 17:45 | 2.83304 | -60.75374 | 4158 ft | 180 kts | 346° |
| 2026-04-22 17:46 | 2.84525 | -60.75500 | 4794 ft | 164 kts | 351° |
| 2026-04-22 17:46 | 2.85629 | -60.75655 | 5245 ft | 166 kts | 344° |
| 2026-04-22 17:46 | 2.86744 | -60.75932 | 5626 ft | 161 kts | 342° |
| 2026-04-22 17:46 | 2.87822 | -60.76232 | 5948 ft | 162 kts | 341° |
| 2026-04-22 17:47 | 2.88911 | -60.76546 | 6237 ft | 166 kts | 341° |
| 2026-04-22 17:47 | 2.90050 | -60.76876 | 6452 ft | 174 kts | 341° |
| 2026-04-22 17:47 | 2.91243 | -60.77225 | 6697 ft | 183 kts | 341° |
| 2026-04-22 17:47 | 2.92490 | -60.77596 | 6929 ft | 192 kts | 340° |
| 2026-04-22 17:48 | 2.93355 | -60.77852 | 7093 ft | 198 kts | 341° |
| 2026-04-22 17:48 | 2.95211 | -60.78399 | 7341 ft | 220 kts | 341° |
| 2026-04-22 17:48 | 2.96723 | -60.78840 | 7527 ft | 237 kts | 341° |
| 2026-04-22 17:48 | 2.98376 | -60.79316 | 7744 ft | 254 kts | 342° |
| 2026-04-22 17:49 | 3.00128 | -60.79822 | 7982 ft | 270 kts | 342° |
| 2026-04-22 17:49 | 3.01974 | -60.80352 | 8208 ft | 280 kts | 342° |
| 2026-04-22 17:49 | 3.03853 | -60.80892 | 8493 ft | 280 kts | 342° |
| 2026-04-22 17:49 | 3.05705 | -60.81426 | 8780 ft | 281 kts | 342° |
| 2026-04-22 17:50 | 3.07589 | -60.81968 | 9059 ft | 283 kts | 342° |
| 2026-04-22 17:50 | 3.09461 | -60.82508 | 9326 ft | 283 kts | 342° |
| 2026-04-22 17:50 | 3.11365 | -60.83056 | 9591 ft | 285 kts | 342° |
| 2026-04-22 17:50 | 3.13276 | -60.83608 | 9862 ft | 286 kts | 342° |
| 2026-04-22 17:51 | 3.15195 | -60.84161 | 10141 ft | 291 kts | 342° |
| 2026-04-22 17:51 | 3.17167 | -60.84731 | 10431 ft | 304 kts | 342° |
| 2026-04-22 17:51 | 3.19237 | -60.85326 | 10726 ft | 314 kts | 342° |
| 2026-04-22 17:51 | 3.21314 | -60.85925 | 11011 ft | 314 kts | 342° |
| 2026-04-22 17:52 | 3.23417 | -60.86531 | 11299 ft | 315 kts | 342° |
| 2026-04-22 17:52 | 3.25511 | -60.87135 | 11581 ft | 316 kts | 342° |
| 2026-04-22 17:52 | 3.27508 | -60.87711 | 11843 ft | 317 kts | 342° |
| 2026-04-22 17:52 | 3.28918 | -60.88117 | 12021 ft | 318 kts | 342° |
| 2026-04-22 17:53 | 3.31057 | -60.88735 | 12293 ft | 320 kts | 342° |
| 2026-04-22 17:53 | 3.33198 | -60.89352 | 12567 ft | 321 kts | 342° |
| 2026-04-22 17:53 | 3.36027 | -60.90167 | 12920 ft | 323 kts | 342° |
| 2026-04-22 17:53 | 3.38189 | -60.90792 | 13190 ft | 324 kts | 342° |
| 2026-04-22 17:54 | 3.40352 | -60.91414 | 13450 ft | 325 kts | 342° |
| 2026-04-22 17:54 | 3.42533 | -60.92045 | 13723 ft | 327 kts | 342° |
| 2026-04-22 17:54 | 3.44018 | -60.92472 | 13908 ft | 328 kts | 342° |
| 2026-04-22 17:54 | 3.46187 | -60.93099 | 14177 ft | 329 kts | 342° |
| 2026-04-22 17:55 | 3.48389 | -60.93733 | 14457 ft | 330 kts | 342° |
| 2026-04-22 17:55 | 3.50567 | -60.94362 | 14732 ft | 332 kts | 342° |
| 2026-04-22 17:55 | 3.52790 | -60.95003 | 15013 ft | 333 kts | 342° |
| 2026-04-22 17:55 | 3.54994 | -60.95639 | 15276 ft | 334 kts | 342° |
| 2026-04-22 17:56 | 3.57230 | -60.96284 | 15537 ft | 336 kts | 342° |
| 2026-04-22 17:56 | 3.59431 | -60.96918 | 15803 ft | 337 kts | 342° |
| 2026-04-22 17:56 | 3.61665 | -60.97556 | 16078 ft | 339 kts | 343° |
| 2026-04-22 17:56 | 3.63985 | -60.98137 | 16356 ft | 340 kts | 345° |
| 2026-04-22 17:57 | 3.66307 | -60.98625 | 16627 ft | 342 kts | 347° |
| 2026-04-22 17:57 | 3.68665 | -60.99028 | 16858 ft | 345 kts | 349° |
| 2026-04-22 17:57 | 3.71046 | -60.99347 | 16942 ft | 345 kts | 352° |
| 2026-04-22 17:57 | 3.73421 | -60.99568 | 16643 ft | 347 kts | 0° |